sensor_id;sensor_type;location;lat;lon;timestamp;P1;durP1;ratioP1;P2;durP2;ratioP2
60038;SDS011;45916;52.734;6.544;2023-04-03T00:00:04;4.75;;;2.97;;
60038;SDS011;45916;52.734;6.544;2023-04-03T00:02:32;4.83;;;2.50;;
60038;SDS011;45916;52.734;6.544;2023-04-03T00:04:57;5.18;;;2.58;;
60038;SDS011;45916;52.734;6.544;2023-04-03T00:07:23;5.57;;;2.15;;
60038;SDS011;45916;52.734;6.544;2023-04-03T00:09:49;5.30;;;2.42;;
60038;SDS011;45916;52.734;6.544;2023-04-03T00:12:15;6.47;;;2.80;;
60038;SDS011;45916;52.734;6.544;2023-04-03T00:14:41;6.22;;;2.10;;
60038;SDS011;45916;52.734;6.544;2023-04-03T00:17:06;5.30;;;2.65;;
60038;SDS011;45916;52.734;6.544;2023-04-03T00:19:32;5.28;;;2.22;;
60038;SDS011;45916;52.734;6.544;2023-04-03T00:21:58;6.53;;;2.50;;
60038;SDS011;45916;52.734;6.544;2023-04-03T00:24:23;5.85;;;1.88;;
60038;SDS011;45916;52.734;6.544;2023-04-03T00:26:49;6.57;;;2.40;;
60038;SDS011;45916;52.734;6.544;2023-04-03T00:29:15;8.02;;;2.50;;
60038;SDS011;45916;52.734;6.544;2023-04-03T00:31:41;5.95;;;2.10;;
60038;SDS011;45916;52.734;6.544;2023-04-03T00:34:06;5.45;;;2.17;;
60038;SDS011;45916;52.734;6.544;2023-04-03T00:36:32;7.20;;;2.70;;
60038;SDS011;45916;52.734;6.544;2023-04-03T00:38:58;5.72;;;2.42;;
60038;SDS011;45916;52.734;6.544;2023-04-03T00:41:23;5.88;;;2.40;;
60038;SDS011;45916;52.734;6.544;2023-04-03T00:43:50;4.90;;;1.95;;
60038;SDS011;45916;52.734;6.544;2023-04-03T00:46:16;5.32;;;2.10;;
60038;SDS011;45916;52.734;6.544;2023-04-03T00:48:44;5.85;;;2.47;;
60038;SDS011;45916;52.734;6.544;2023-04-03T00:51:16;5.43;;;1.88;;
60038;SDS011;45916;52.734;6.544;2023-04-03T00:56:21;5.68;;;2.38;;
60038;SDS011;45916;52.734;6.544;2023-04-03T01:01:34;5.13;;;2.55;;
60038;SDS011;45916;52.734;6.544;2023-04-03T01:04:01;4.35;;;2.10;;
60038;SDS011;45916;52.734;6.544;2023-04-03T01:06:29;5.22;;;2.33;;
60038;SDS011;45916;52.734;6.544;2023-04-03T01:08:57;5.55;;;2.33;;
60038;SDS011;45916;52.734;6.544;2023-04-03T01:11:24;5.57;;;2.30;;
60038;SDS011;45916;52.734;6.544;2023-04-03T01:13:50;5.47;;;2.58;;
60038;SDS011;45916;52.734;6.544;2023-04-03T01:16:16;5.63;;;2.90;;
60038;SDS011;45916;52.734;6.544;2023-04-03T01:18:41;5.95;;;2.80;;
60038;SDS011;45916;52.734;6.544;2023-04-03T01:26:21;5.40;;;2.25;;
60038;SDS011;45916;52.734;6.544;2023-04-03T01:28:47;6.55;;;2.75;;
60038;SDS011;45916;52.734;6.544;2023-04-03T01:31:39;6.88;;;3.25;;
60038;SDS011;45916;52.734;6.544;2023-04-03T01:34:14;7.43;;;3.28;;
60038;SDS011;45916;52.734;6.544;2023-04-03T01:36:40;6.88;;;3.03;;
60038;SDS011;45916;52.734;6.544;2023-04-03T01:39:06;6.57;;;2.90;;
60038;SDS011;45916;52.734;6.544;2023-04-03T01:41:32;6.55;;;3.40;;
60038;SDS011;45916;52.734;6.544;2023-04-03T01:43:58;6.82;;;2.80;;
60038;SDS011;45916;52.734;6.544;2023-04-03T01:46:23;6.43;;;3.10;;
60038;SDS011;45916;52.734;6.544;2023-04-03T01:48:49;8.15;;;3.60;;
60038;SDS011;45916;52.734;6.544;2023-04-03T01:51:15;7.60;;;2.80;;
60038;SDS011;45916;52.734;6.544;2023-04-03T01:53:41;6.28;;;3.10;;
60038;SDS011;45916;52.734;6.544;2023-04-03T01:56:07;7.55;;;3.50;;
60038;SDS011;45916;52.734;6.544;2023-04-03T01:58:33;6.35;;;2.92;;
60038;SDS011;45916;52.734;6.544;2023-04-03T02:00:59;9.15;;;3.30;;
60038;SDS011;45916;52.734;6.544;2023-04-03T02:03:25;7.13;;;3.40;;
60038;SDS011;45916;52.734;6.544;2023-04-03T02:05:51;5.32;;;3.08;;
60038;SDS011;45916;52.734;6.544;2023-04-03T02:08:17;7.93;;;3.50;;
60038;SDS011;45916;52.734;6.544;2023-04-03T02:10:43;5.57;;;3.03;;
60038;SDS011;45916;52.734;6.544;2023-04-03T02:13:10;8.48;;;3.50;;
60038;SDS011;45916;52.734;6.544;2023-04-03T02:15:37;7.50;;;3.83;;
60038;SDS011;45916;52.734;6.544;2023-04-03T02:18:04;9.15;;;3.60;;
60038;SDS011;45916;52.734;6.544;2023-04-03T02:20:30;7.28;;;3.65;;
60038;SDS011;45916;52.734;6.544;2023-04-03T02:22:56;5.35;;;2.97;;
60038;SDS011;45916;52.734;6.544;2023-04-03T02:25:21;7.13;;;3.92;;
60038;SDS011;45916;52.734;6.544;2023-04-03T02:27:47;7.40;;;3.90;;
60038;SDS011;45916;52.734;6.544;2023-04-03T02:30:13;8.05;;;4.25;;
60038;SDS011;45916;52.734;6.544;2023-04-03T02:32:40;8.45;;;4.40;;
60038;SDS011;45916;52.734;6.544;2023-04-03T02:35:07;9.02;;;3.58;;
60038;SDS011;45916;52.734;6.544;2023-04-03T02:37:34;6.80;;;3.88;;
60038;SDS011;45916;52.734;6.544;2023-04-03T02:40:00;8.48;;;4.65;;
60038;SDS011;45916;52.734;6.544;2023-04-03T02:42:25;7.15;;;3.72;;
60038;SDS011;45916;52.734;6.544;2023-04-03T02:44:51;6.45;;;3.85;;
60038;SDS011;45916;52.734;6.544;2023-04-03T02:47:17;7.90;;;3.72;;
60038;SDS011;45916;52.734;6.544;2023-04-03T02:49:43;9.57;;;3.80;;
60038;SDS011;45916;52.734;6.544;2023-04-03T02:52:10;7.93;;;3.83;;
60038;SDS011;45916;52.734;6.544;2023-04-03T02:54:35;7.47;;;4.40;;
60038;SDS011;45916;52.734;6.544;2023-04-03T02:57:01;6.63;;;4.60;;
60038;SDS011;45916;52.734;6.544;2023-04-03T02:59:27;11.10;;;4.20;;
60038;SDS011;45916;52.734;6.544;2023-04-03T03:01:52;8.90;;;4.32;;
60038;SDS011;45916;52.734;6.544;2023-04-03T03:04:18;7.95;;;4.78;;
60038;SDS011;45916;52.734;6.544;2023-04-03T03:06:44;9.20;;;4.30;;
60038;SDS011;45916;52.734;6.544;2023-04-03T03:09:11;9.73;;;4.75;;
60038;SDS011;45916;52.734;6.544;2023-04-03T03:11:38;8.52;;;4.93;;
60038;SDS011;45916;52.734;6.544;2023-04-03T03:14:04;8.40;;;4.18;;
60038;SDS011;45916;52.734;6.544;2023-04-03T03:16:29;10.68;;;4.60;;
60038;SDS011;45916;52.734;6.544;2023-04-03T03:18:55;8.23;;;4.05;;
60038;SDS011;45916;52.734;6.544;2023-04-03T03:21:21;8.27;;;4.50;;
60038;SDS011;45916;52.734;6.544;2023-04-03T03:23:47;12.00;;;4.43;;
60038;SDS011;45916;52.734;6.544;2023-04-03T03:26:13;8.13;;;4.13;;
60038;SDS011;45916;52.734;6.544;2023-04-03T03:28:39;8.15;;;4.30;;
60038;SDS011;45916;52.734;6.544;2023-04-03T03:31:05;7.40;;;4.35;;
60038;SDS011;45916;52.734;6.544;2023-04-03T03:33:32;8.02;;;4.32;;
60038;SDS011;45916;52.734;6.544;2023-04-03T03:35:58;9.02;;;4.55;;
60038;SDS011;45916;52.734;6.544;2023-04-03T03:38:24;8.32;;;4.22;;
60038;SDS011;45916;52.734;6.544;2023-04-03T03:40:50;10.68;;;4.57;;
60038;SDS011;45916;52.734;6.544;2023-04-03T03:43:17;9.57;;;4.82;;
60038;SDS011;45916;52.734;6.544;2023-04-03T03:45:43;8.73;;;4.90;;
60038;SDS011;45916;52.734;6.544;2023-04-03T03:48:10;7.70;;;4.63;;
60038;SDS011;45916;52.734;6.544;2023-04-03T03:50:36;7.07;;;4.35;;
60038;SDS011;45916;52.734;6.544;2023-04-03T03:53:02;10.00;;;4.68;;
60038;SDS011;45916;52.734;6.544;2023-04-03T03:55:28;9.02;;;4.57;;
60038;SDS011;45916;52.734;6.544;2023-04-03T03:57:53;8.25;;;4.47;;
60038;SDS011;45916;52.734;6.544;2023-04-03T04:00:19;8.05;;;4.80;;
60038;SDS011;45916;52.734;6.544;2023-04-03T04:02:46;12.48;;;5.05;;
60038;SDS011;45916;52.734;6.544;2023-04-03T04:05:11;9.68;;;4.65;;
60038;SDS011;45916;52.734;6.544;2023-04-03T04:07:37;6.85;;;4.38;;
60038;SDS011;45916;52.734;6.544;2023-04-03T04:10:03;9.27;;;5.05;;
60038;SDS011;45916;52.734;6.544;2023-04-03T04:12:29;7.97;;;4.65;;
60038;SDS011;45916;52.734;6.544;2023-04-03T04:14:55;7.57;;;5.15;;
60038;SDS011;45916;52.734;6.544;2023-04-03T04:17:21;8.05;;;4.85;;
60038;SDS011;45916;52.734;6.544;2023-04-03T04:19:46;10.88;;;6.10;;
60038;SDS011;45916;52.734;6.544;2023-04-03T04:22:12;9.07;;;5.03;;
60038;SDS011;45916;52.734;6.544;2023-04-03T04:24:37;9.00;;;4.90;;
60038;SDS011;45916;52.734;6.544;2023-04-03T04:27:03;7.53;;;4.68;;
60038;SDS011;45916;52.734;6.544;2023-04-03T04:29:29;9.07;;;4.90;;
60038;SDS011;45916;52.734;6.544;2023-04-03T04:32:00;9.93;;;4.80;;
60038;SDS011;45916;52.734;6.544;2023-04-03T04:34:26;8.88;;;5.03;;
60038;SDS011;45916;52.734;6.544;2023-04-03T04:36:51;10.73;;;5.38;;
60038;SDS011;45916;52.734;6.544;2023-04-03T04:39:17;9.38;;;5.10;;
60038;SDS011;45916;52.734;6.544;2023-04-03T04:41:43;9.77;;;4.95;;
60038;SDS011;45916;52.734;6.544;2023-04-03T04:44:08;11.38;;;5.32;;
60038;SDS011;45916;52.734;6.544;2023-04-03T04:46:34;10.90;;;5.40;;
60038;SDS011;45916;52.734;6.544;2023-04-03T04:49:00;9.80;;;5.35;;
60038;SDS011;45916;52.734;6.544;2023-04-03T04:51:26;10.07;;;6.13;;
60038;SDS011;45916;52.734;6.544;2023-04-03T04:53:51;9.60;;;5.65;;
60038;SDS011;45916;52.734;6.544;2023-04-03T04:56:17;10.18;;;5.28;;
60038;SDS011;45916;52.734;6.544;2023-04-03T04:58:43;10.10;;;5.38;;
60038;SDS011;45916;52.734;6.544;2023-04-03T05:01:09;11.52;;;5.47;;
60038;SDS011;45916;52.734;6.544;2023-04-03T05:03:35;9.00;;;5.13;;
60038;SDS011;45916;52.734;6.544;2023-04-03T05:06:01;9.52;;;5.60;;
60038;SDS011;45916;52.734;6.544;2023-04-03T05:08:27;9.73;;;5.70;;
60038;SDS011;45916;52.734;6.544;2023-04-03T05:10:53;11.10;;;5.47;;
60038;SDS011;45916;52.734;6.544;2023-04-03T05:13:19;9.52;;;5.47;;
60038;SDS011;45916;52.734;6.544;2023-04-03T05:15:45;11.43;;;5.95;;
60038;SDS011;45916;52.734;6.544;2023-04-03T05:18:11;9.38;;;5.43;;
60038;SDS011;45916;52.734;6.544;2023-04-03T05:20:37;10.63;;;6.72;;
60038;SDS011;45916;52.734;6.544;2023-04-03T05:23:03;9.90;;;5.38;;
60038;SDS011;45916;52.734;6.544;2023-04-03T05:25:29;8.05;;;4.70;;
60038;SDS011;45916;52.734;6.544;2023-04-03T05:27:55;13.15;;;5.15;;
60038;SDS011;45916;52.734;6.544;2023-04-03T05:30:20;9.50;;;5.55;;
60038;SDS011;45916;52.734;6.544;2023-04-03T05:32:46;7.82;;;5.05;;
60038;SDS011;45916;52.734;6.544;2023-04-03T05:35:12;8.95;;;5.53;;
60038;SDS011;45916;52.734;6.544;2023-04-03T05:37:38;11.77;;;5.88;;
60038;SDS011;45916;52.734;6.544;2023-04-03T05:40:04;11.52;;;6.85;;
60038;SDS011;45916;52.734;6.544;2023-04-03T05:42:30;9.13;;;4.50;;
60038;SDS011;45916;52.734;6.544;2023-04-03T05:44:57;9.25;;;4.53;;
60038;SDS011;45916;52.734;6.544;2023-04-03T05:47:22;7.32;;;4.22;;
60038;SDS011;45916;52.734;6.544;2023-04-03T05:49:48;8.07;;;4.13;;
60038;SDS011;45916;52.734;6.544;2023-04-03T05:52:27;8.07;;;3.58;;
60038;SDS011;45916;52.734;6.544;2023-04-03T05:54:55;10.73;;;3.85;;
60038;SDS011;45916;52.734;6.544;2023-04-03T05:57:21;7.60;;;3.40;;
60038;SDS011;45916;52.734;6.544;2023-04-03T05:59:47;7.13;;;2.90;;
60038;SDS011;45916;52.734;6.544;2023-04-03T06:02:14;6.95;;;2.72;;
60038;SDS011;45916;52.734;6.544;2023-04-03T06:04:42;8.52;;;3.22;;
60038;SDS011;45916;52.734;6.544;2023-04-03T06:07:10;6.78;;;2.90;;
60038;SDS011;45916;52.734;6.544;2023-04-03T06:09:38;6.82;;;3.00;;
60038;SDS011;45916;52.734;6.544;2023-04-03T06:12:04;7.85;;;3.25;;
60038;SDS011;45916;52.734;6.544;2023-04-03T06:14:30;8.75;;;2.78;;
60038;SDS011;45916;52.734;6.544;2023-04-03T06:16:55;7.70;;;2.78;;
60038;SDS011;45916;52.734;6.544;2023-04-03T06:19:21;5.88;;;2.10;;
60038;SDS011;45916;52.734;6.544;2023-04-03T06:21:47;6.15;;;2.38;;
60038;SDS011;45916;52.734;6.544;2023-04-03T06:24:15;5.38;;;2.20;;
60038;SDS011;45916;52.734;6.544;2023-04-03T06:26:41;5.57;;;2.20;;
60038;SDS011;45916;52.734;6.544;2023-04-03T06:29:07;7.38;;;2.60;;
60038;SDS011;45916;52.734;6.544;2023-04-03T06:31:33;8.00;;;2.85;;
60038;SDS011;45916;52.734;6.544;2023-04-03T06:34:01;5.97;;;2.35;;
60038;SDS011;45916;52.734;6.544;2023-04-03T06:36:27;5.97;;;2.20;;
60038;SDS011;45916;52.734;6.544;2023-04-03T06:38:54;5.47;;;2.20;;
60038;SDS011;45916;52.734;6.544;2023-04-03T06:41:19;6.38;;;2.15;;
60038;SDS011;45916;52.734;6.544;2023-04-03T06:43:46;5.72;;;2.28;;
60038;SDS011;45916;52.734;6.544;2023-04-03T06:46:15;6.10;;;2.25;;
60038;SDS011;45916;52.734;6.544;2023-04-03T06:48:43;5.63;;;1.95;;
60038;SDS011;45916;52.734;6.544;2023-04-03T06:51:30;6.80;;;1.80;;
60038;SDS011;45916;52.734;6.544;2023-04-03T06:53:58;5.82;;;2.30;;
60038;SDS011;45916;52.734;6.544;2023-04-03T06:56:25;5.10;;;2.00;;
60038;SDS011;45916;52.734;6.544;2023-04-03T06:58:52;5.57;;;2.13;;
60038;SDS011;45916;52.734;6.544;2023-04-03T07:01:19;4.50;;;1.83;;
60038;SDS011;45916;52.734;6.544;2023-04-03T07:03:46;6.47;;;2.10;;
60038;SDS011;45916;52.734;6.544;2023-04-03T07:06:14;6.67;;;2.37;;
60038;SDS011;45916;52.734;6.544;2023-04-03T07:08:41;6.07;;;1.92;;
60038;SDS011;45916;52.734;6.544;2023-04-03T07:11:08;5.97;;;2.22;;
60038;SDS011;45916;52.734;6.544;2023-04-03T07:13:35;7.70;;;2.22;;
60038;SDS011;45916;52.734;6.544;2023-04-03T07:16:01;6.00;;;2.20;;
60038;SDS011;45916;52.734;6.544;2023-04-03T07:18:30;6.45;;;2.03;;
60038;SDS011;45916;52.734;6.544;2023-04-03T07:20:56;6.65;;;2.40;;
60038;SDS011;45916;52.734;6.544;2023-04-03T07:23:22;5.25;;;2.25;;
60038;SDS011;45916;52.734;6.544;2023-04-03T07:25:48;6.60;;;2.03;;
60038;SDS011;45916;52.734;6.544;2023-04-03T07:28:16;6.47;;;2.30;;
60038;SDS011;45916;52.734;6.544;2023-04-03T07:30:46;5.40;;;2.03;;
60038;SDS011;45916;52.734;6.544;2023-04-03T07:33:15;4.55;;;1.65;;
60038;SDS011;45916;52.734;6.544;2023-04-03T07:35:42;5.65;;;2.55;;
60038;SDS011;45916;52.734;6.544;2023-04-03T07:38:08;5.05;;;1.70;;
60038;SDS011;45916;52.734;6.544;2023-04-03T07:40:35;5.10;;;1.80;;
60038;SDS011;45916;52.734;6.544;2023-04-03T07:43:02;4.47;;;1.80;;
60038;SDS011;45916;52.734;6.544;2023-04-03T07:45:27;5.50;;;1.58;;
60038;SDS011;45916;52.734;6.544;2023-04-03T07:47:54;5.90;;;2.00;;
60038;SDS011;45916;52.734;6.544;2023-04-03T07:50:20;6.15;;;2.22;;
60038;SDS011;45916;52.734;6.544;2023-04-03T07:52:46;6.68;;;1.88;;
60038;SDS011;45916;52.734;6.544;2023-04-03T07:55:12;5.35;;;2.00;;
60038;SDS011;45916;52.734;6.544;2023-04-03T07:57:38;4.55;;;2.05;;
60038;SDS011;45916;52.734;6.544;2023-04-03T08:00:04;5.50;;;2.13;;
60038;SDS011;45916;52.734;6.544;2023-04-03T08:02:31;6.63;;;2.03;;
60038;SDS011;45916;52.734;6.544;2023-04-03T08:07:25;5.65;;;2.00;;
60038;SDS011;45916;52.734;6.544;2023-04-03T08:09:51;5.25;;;1.98;;
60038;SDS011;45916;52.734;6.544;2023-04-03T08:12:17;6.22;;;2.13;;
60038;SDS011;45916;52.734;6.544;2023-04-03T08:14:43;7.18;;;1.90;;
60038;SDS011;45916;52.734;6.544;2023-04-03T08:17:09;5.25;;;1.80;;
60038;SDS011;45916;52.734;6.544;2023-04-03T08:19:40;4.75;;;1.60;;
60038;SDS011;45916;52.734;6.544;2023-04-03T08:22:06;5.82;;;1.75;;
60038;SDS011;45916;52.734;6.544;2023-04-03T08:24:32;4.55;;;1.60;;
60038;SDS011;45916;52.734;6.544;2023-04-03T08:26:59;6.55;;;1.90;;
60038;SDS011;45916;52.734;6.544;2023-04-03T08:29:25;5.00;;;1.83;;
60038;SDS011;45916;52.734;6.544;2023-04-03T08:31:51;6.32;;;1.60;;
60038;SDS011;45916;52.734;6.544;2023-04-03T08:34:17;5.95;;;1.40;;
60038;SDS011;45916;52.734;6.544;2023-04-03T08:36:44;5.85;;;1.88;;
60038;SDS011;45916;52.734;6.544;2023-04-03T08:39:10;6.00;;;1.70;;
60038;SDS011;45916;52.734;6.544;2023-04-03T08:47:02;3.38;;;1.27;;
60038;SDS011;45916;52.734;6.544;2023-04-03T08:51:56;4.95;;;1.48;;
60038;SDS011;45916;52.734;6.544;2023-04-03T08:54:27;4.75;;;1.50;;
60038;SDS011;45916;52.734;6.544;2023-04-03T08:57:00;4.03;;;1.30;;
60038;SDS011;45916;52.734;6.544;2023-04-03T08:59:30;4.18;;;1.58;;
60038;SDS011;45916;52.734;6.544;2023-04-03T09:02:00;3.25;;;1.20;;
60038;SDS011;45916;52.734;6.544;2023-04-03T09:04:32;4.45;;;1.65;;
60038;SDS011;45916;52.734;6.544;2023-04-03T09:07:02;5.47;;;1.48;;
60038;SDS011;45916;52.734;6.544;2023-04-03T09:09:43;4.10;;;1.52;;
60038;SDS011;45916;52.734;6.544;2023-04-03T09:12:26;5.50;;;1.63;;
60038;SDS011;45916;52.734;6.544;2023-04-03T09:18:12;4.28;;;1.23;;
60038;SDS011;45916;52.734;6.544;2023-04-03T09:23:52;5.38;;;1.55;;
60038;SDS011;45916;52.734;6.544;2023-04-03T09:26:24;4.05;;;1.30;;
60038;SDS011;45916;52.734;6.544;2023-04-03T09:28:54;4.65;;;1.08;;
60038;SDS011;45916;52.734;6.544;2023-04-03T09:31:27;4.28;;;1.33;;
60038;SDS011;45916;52.734;6.544;2023-04-03T09:34:01;4.70;;;1.40;;
60038;SDS011;45916;52.734;6.544;2023-04-03T09:36:40;3.42;;;1.58;;
60038;SDS011;45916;52.734;6.544;2023-04-03T09:39:09;4.18;;;1.35;;
60038;SDS011;45916;52.734;6.544;2023-04-03T09:41:54;5.50;;;1.70;;
60038;SDS011;45916;52.734;6.544;2023-04-03T09:44:38;4.65;;;1.45;;
60038;SDS011;45916;52.734;6.544;2023-04-03T09:47:26;3.85;;;0.98;;
60038;SDS011;45916;52.734;6.544;2023-04-03T09:49:50;3.40;;;1.13;;
60038;SDS011;45916;52.734;6.544;2023-04-03T09:52:20;4.20;;;1.35;;
60038;SDS011;45916;52.734;6.544;2023-04-03T09:54:49;3.97;;;1.17;;
60038;SDS011;45916;52.734;6.544;2023-04-03T09:57:15;2.15;;;1.00;;
60038;SDS011;45916;52.734;6.544;2023-04-03T09:59:47;3.38;;;1.20;;
60038;SDS011;45916;52.734;6.544;2023-04-03T10:02:34;3.80;;;1.50;;
60038;SDS011;45916;52.734;6.544;2023-04-03T10:05:03;2.95;;;1.00;;
60038;SDS011;45916;52.734;6.544;2023-04-03T10:07:49;4.82;;;1.30;;
60038;SDS011;45916;52.734;6.544;2023-04-03T10:12:40;2.72;;;1.10;;
60038;SDS011;45916;52.734;6.544;2023-04-03T10:15:13;3.30;;;1.00;;
60038;SDS011;45916;52.734;6.544;2023-04-03T10:17:51;3.50;;;1.35;;
60038;SDS011;45916;52.734;6.544;2023-04-03T10:20:34;3.83;;;1.15;;
60038;SDS011;45916;52.734;6.544;2023-04-03T10:23:21;3.95;;;1.20;;
60038;SDS011;45916;52.734;6.544;2023-04-03T10:29:30;3.78;;;1.17;;
60038;SDS011;45916;52.734;6.544;2023-04-03T10:35:37;2.65;;;1.02;;
60038;SDS011;45916;52.734;6.544;2023-04-03T10:41:07;4.30;;;1.00;;
60038;SDS011;45916;52.734;6.544;2023-04-03T10:46:44;4.13;;;1.17;;
60038;SDS011;45916;52.734;6.544;2023-04-03T10:49:20;3.47;;;1.10;;
60038;SDS011;45916;52.734;6.544;2023-04-03T10:52:05;4.30;;;1.52;;
60038;SDS011;45916;52.734;6.544;2023-04-03T10:54:39;4.55;;;1.50;;
60038;SDS011;45916;52.734;6.544;2023-04-03T10:57:10;4.32;;;1.20;;
60038;SDS011;45916;52.734;6.544;2023-04-03T10:59:58;4.93;;;1.15;;
60038;SDS011;45916;52.734;6.544;2023-04-03T11:05:13;5.20;;;1.23;;
60038;SDS011;45916;52.734;6.544;2023-04-03T11:07:48;3.63;;;1.20;;
60038;SDS011;45916;52.734;6.544;2023-04-03T11:12:56;3.30;;;1.10;;
60038;SDS011;45916;52.734;6.544;2023-04-03T11:15:31;3.83;;;1.40;;
60038;SDS011;45916;52.734;6.544;2023-04-03T11:18:00;3.30;;;1.45;;
60038;SDS011;45916;52.734;6.544;2023-04-03T11:20:31;4.47;;;1.35;;
60038;SDS011;45916;52.734;6.544;2023-04-03T11:23:00;3.67;;;1.13;;
60038;SDS011;45916;52.734;6.544;2023-04-03T11:25:36;4.70;;;1.30;;
60038;SDS011;45916;52.734;6.544;2023-04-03T11:28:09;2.80;;;1.05;;
60038;SDS011;45916;52.734;6.544;2023-04-03T11:39:07;4.28;;;1.20;;
60038;SDS011;45916;52.734;6.544;2023-04-03T11:41:45;3.03;;;1.35;;
60038;SDS011;45916;52.734;6.544;2023-04-03T11:44:32;4.85;;;1.92;;
60038;SDS011;45916;52.734;6.544;2023-04-03T11:47:02;4.65;;;1.33;;
60038;SDS011;45916;52.734;6.544;2023-04-03T12:16:28;5.45;;;1.95;;
60038;SDS011;45916;52.734;6.544;2023-04-03T12:48:53;5.68;;;2.03;;
60038;SDS011;45916;52.734;6.544;2023-04-03T12:54:04;5.78;;;1.50;;
60038;SDS011;45916;52.734;6.544;2023-04-03T12:57:10;6.25;;;1.65;;
60038;SDS011;45916;52.734;6.544;2023-04-03T12:59:36;4.95;;;1.80;;
60038;SDS011;45916;52.734;6.544;2023-04-03T13:02:07;5.15;;;1.60;;
60038;SDS011;45916;52.734;6.544;2023-04-03T13:04:46;5.15;;;1.67;;
60038;SDS011;45916;52.734;6.544;2023-04-03T13:12:33;4.00;;;1.70;;
60038;SDS011;45916;52.734;6.544;2023-04-03T13:15:22;5.55;;;2.28;;
60038;SDS011;45916;52.734;6.544;2023-04-03T13:18:05;5.53;;;1.88;;
60038;SDS011;45916;52.734;6.544;2023-04-03T13:20:45;3.35;;;1.80;;
60038;SDS011;45916;52.734;6.544;2023-04-03T13:23:13;4.35;;;1.60;;
60038;SDS011;45916;52.734;6.544;2023-04-03T13:25:43;4.05;;;1.63;;
60038;SDS011;45916;52.734;6.544;2023-04-03T13:28:11;4.32;;;1.80;;
60038;SDS011;45916;52.734;6.544;2023-04-03T13:30:40;4.03;;;1.83;;
60038;SDS011;45916;52.734;6.544;2023-04-03T13:33:20;5.82;;;2.25;;
60038;SDS011;45916;52.734;6.544;2023-04-03T13:35:54;5.40;;;1.80;;
60038;SDS011;45916;52.734;6.544;2023-04-03T13:38:40;4.03;;;1.67;;
60038;SDS011;45916;52.734;6.544;2023-04-03T13:41:21;5.45;;;2.17;;
60038;SDS011;45916;52.734;6.544;2023-04-03T13:47:18;3.53;;;1.63;;
60038;SDS011;45916;52.734;6.544;2023-04-03T13:49:58;5.78;;;2.10;;
60038;SDS011;45916;52.734;6.544;2023-04-03T13:54:57;4.47;;;2.03;;
60038;SDS011;45916;52.734;6.544;2023-04-03T13:57:25;4.63;;;1.90;;
60038;SDS011;45916;52.734;6.544;2023-04-03T13:59:51;5.53;;;2.10;;
60038;SDS011;45916;52.734;6.544;2023-04-03T14:02:19;4.82;;;2.20;;
60038;SDS011;45916;52.734;6.544;2023-04-03T14:04:55;4.70;;;2.47;;
60038;SDS011;45916;52.734;6.544;2023-04-03T14:07:25;5.55;;;1.85;;
60038;SDS011;45916;52.734;6.544;2023-04-03T14:09:52;3.97;;;2.00;;
60038;SDS011;45916;52.734;6.544;2023-04-03T14:12:21;4.28;;;1.75;;
60038;SDS011;45916;52.734;6.544;2023-04-03T14:14:54;4.38;;;1.65;;
60038;SDS011;45916;52.734;6.544;2023-04-03T14:17:22;4.88;;;2.05;;
60038;SDS011;45916;52.734;6.544;2023-04-03T14:19:49;5.97;;;2.00;;
60038;SDS011;45916;52.734;6.544;2023-04-03T14:22:34;5.03;;;2.30;;
60038;SDS011;45916;52.734;6.544;2023-04-03T14:25:00;5.47;;;1.85;;
60038;SDS011;45916;52.734;6.544;2023-04-03T14:27:27;4.32;;;1.90;;
60038;SDS011;45916;52.734;6.544;2023-04-03T14:30:05;4.75;;;2.25;;
60038;SDS011;45916;52.734;6.544;2023-04-03T14:32:43;4.82;;;2.10;;
60038;SDS011;45916;52.734;6.544;2023-04-03T14:35:09;5.00;;;2.30;;
60038;SDS011;45916;52.734;6.544;2023-04-03T14:37:35;6.55;;;2.33;;
60038;SDS011;45916;52.734;6.544;2023-04-03T14:40:02;5.68;;;2.17;;
60038;SDS011;45916;52.734;6.544;2023-04-03T14:42:31;7.03;;;2.22;;
60038;SDS011;45916;52.734;6.544;2023-04-03T14:44:59;6.13;;;1.92;;
60038;SDS011;45916;52.734;6.544;2023-04-03T14:47:27;5.60;;;2.47;;
60038;SDS011;45916;52.734;6.544;2023-04-03T14:52:21;5.68;;;2.05;;
60038;SDS011;45916;52.734;6.544;2023-04-03T14:54:50;3.63;;;1.90;;
60038;SDS011;45916;52.734;6.544;2023-04-03T14:57:17;5.60;;;2.00;;
60038;SDS011;45916;52.734;6.544;2023-04-03T14:59:46;5.10;;;2.00;;
60038;SDS011;45916;52.734;6.544;2023-04-03T15:02:54;4.80;;;2.08;;
60038;SDS011;45916;52.734;6.544;2023-04-03T15:05:03;5.25;;;2.33;;
60038;SDS011;45916;52.734;6.544;2023-04-03T15:07:35;6.50;;;2.28;;
60038;SDS011;45916;52.734;6.544;2023-04-03T15:12:49;4.65;;;1.88;;
60038;SDS011;45916;52.734;6.544;2023-04-03T15:15:15;5.03;;;2.25;;
60038;SDS011;45916;52.734;6.544;2023-04-03T15:17:42;5.30;;;2.28;;
60038;SDS011;45916;52.734;6.544;2023-04-03T15:20:28;4.60;;;2.10;;
60038;SDS011;45916;52.734;6.544;2023-04-03T15:22:56;5.47;;;2.70;;
60038;SDS011;45916;52.734;6.544;2023-04-03T15:25:22;5.68;;;2.33;;
60038;SDS011;45916;52.734;6.544;2023-04-03T15:27:48;5.07;;;2.47;;
60038;SDS011;45916;52.734;6.544;2023-04-03T15:30:15;5.40;;;2.40;;
60038;SDS011;45916;52.734;6.544;2023-04-03T15:32:43;5.75;;;2.17;;
60038;SDS011;45916;52.734;6.544;2023-04-03T15:35:10;5.57;;;2.55;;
60038;SDS011;45916;52.734;6.544;2023-04-03T15:37:36;6.97;;;2.55;;
60038;SDS011;45916;52.734;6.544;2023-04-03T15:40:08;5.80;;;2.78;;
60038;SDS011;45916;52.734;6.544;2023-04-03T15:42:35;6.80;;;2.45;;
60038;SDS011;45916;52.734;6.544;2023-04-03T15:45:02;4.95;;;2.08;;
60038;SDS011;45916;52.734;6.544;2023-04-03T15:47:28;5.20;;;2.17;;
60038;SDS011;45916;52.734;6.544;2023-04-03T15:49:54;5.32;;;2.35;;
60038;SDS011;45916;52.734;6.544;2023-04-03T15:52:21;4.82;;;2.20;;
60038;SDS011;45916;52.734;6.544;2023-04-03T15:54:47;5.15;;;2.30;;
60038;SDS011;45916;52.734;6.544;2023-04-03T15:57:12;5.70;;;2.55;;
60038;SDS011;45916;52.734;6.544;2023-04-03T15:59:38;5.15;;;1.98;;
60038;SDS011;45916;52.734;6.544;2023-04-03T16:02:04;4.95;;;2.25;;
60038;SDS011;45916;52.734;6.544;2023-04-03T16:04:32;6.28;;;2.35;;
60038;SDS011;45916;52.734;6.544;2023-04-03T16:07:02;4.95;;;2.15;;
60038;SDS011;45916;52.734;6.544;2023-04-03T16:09:30;6.82;;;2.40;;
60038;SDS011;45916;52.734;6.544;2023-04-03T16:11:57;4.72;;;2.55;;
60038;SDS011;45916;52.734;6.544;2023-04-03T16:14:23;6.13;;;2.80;;
60038;SDS011;45916;52.734;6.544;2023-04-03T16:16:49;6.30;;;2.10;;
60038;SDS011;45916;52.734;6.544;2023-04-03T16:19:15;5.20;;;2.13;;
60038;SDS011;45916;52.734;6.544;2023-04-03T16:21:40;5.80;;;2.20;;
60038;SDS011;45916;52.734;6.544;2023-04-03T16:24:06;6.55;;;2.67;;
60038;SDS011;45916;52.734;6.544;2023-04-03T16:26:32;7.10;;;2.70;;
60038;SDS011;45916;52.734;6.544;2023-04-03T16:28:58;5.53;;;2.17;;
60038;SDS011;45916;52.734;6.544;2023-04-03T16:31:24;6.03;;;2.67;;
60038;SDS011;45916;52.734;6.544;2023-04-03T16:33:51;4.88;;;2.40;;
60038;SDS011;45916;52.734;6.544;2023-04-03T16:36:17;5.22;;;2.22;;
60038;SDS011;45916;52.734;6.544;2023-04-03T16:38:42;4.95;;;2.55;;
60038;SDS011;45916;52.734;6.544;2023-04-03T16:41:08;5.20;;;2.33;;
60038;SDS011;45916;52.734;6.544;2023-04-03T16:43:34;5.63;;;2.28;;
60038;SDS011;45916;52.734;6.544;2023-04-03T16:46:00;5.47;;;2.17;;
60038;SDS011;45916;52.734;6.544;2023-04-03T16:48:27;6.57;;;2.13;;
60038;SDS011;45916;52.734;6.544;2023-04-03T16:50:54;4.90;;;2.17;;
60038;SDS011;45916;52.734;6.544;2023-04-03T16:53:20;5.65;;;1.90;;
60038;SDS011;45916;52.734;6.544;2023-04-03T16:55:46;5.45;;;2.35;;
60038;SDS011;45916;52.734;6.544;2023-04-03T16:58:12;5.05;;;2.30;;
60038;SDS011;45916;52.734;6.544;2023-04-03T17:00:39;5.18;;;1.95;;
60038;SDS011;45916;52.734;6.544;2023-04-03T17:03:05;5.88;;;2.40;;
60038;SDS011;45916;52.734;6.544;2023-04-03T17:05:31;5.38;;;2.30;;
60038;SDS011;45916;52.734;6.544;2023-04-03T17:07:56;5.30;;;2.03;;